XS73 weather

Scott & White Medical Center - College Station Heliport
College Station, Texas, United States

Public forecast

Using degrees Fahrenheit for public forecast. Weather courtesy of forecast.io.

METAR (pilot weather report)

Closest report is Easterwood Field, 4.4 nm (8.2 km) W. Retrieved 2019/07/19 06:53 UTC (9 minutes ago):

KCLL 190653Z AUTO 16007KT 10SM CLR 26/24 A2999 RMK AO2 SLP148 T02610239

TAF (pilot weather forecast)

Closest forecast is Easterwood Field, 4.4 nm (8.2 km) W. Retrieved 2019/07/19 06:22 UTC (40 minutes ago):

TAF KCLL 190520Z 1906/2006 17010KT P6SM SCT070 SCT250 FM190900 18005KT P6SM BKN020 FM191600 18011KT P6SM FEW015 SCT035 FM192100 16010G16KT P6SM SCT050 SCT250